Time;durP1;ratioP1;P1;durP2;ratioP2;P2;SDS_P1;SDS_P2;PMS_P1;PMS_P2;Temp;Humidity;BMP_temperature;BMP_pressure;BME280_temperature;BME280_humidity;BME280_pressure;Samples;Min_cycle;Max_cycle;Signal;HPM_P1;HPM_P2
2022/12/07 00:47:27;;;;;;;;;;;24.30;67.70;;;;;;5083385;28;19986;-71
2022/12/07 00:49:53;;;;;;;;;;;24.40;68.90;;;;;;5069991;28;19928;-71
2022/12/07 00:52:20;;;;;;;;;;;24.40;67.50;;;;;;5074217;28;19921;-71
2022/12/07 00:54:46;;;;;;;;;;;24.50;68.30;;;;;;5071887;28;19947;-70
2022/12/07 00:57:13;;;;;;;;;;;24.50;67.50;;;;;;5071141;28;20346;-71
2022/12/07 00:59:39;;;;;;;;;;;24.50;66.80;;;;;;5075661;28;19912;-71
2022/12/07 01:02:06;;;;;;;;;;;24.50;67.20;;;;;;5072421;28;20385;-71
2022/12/07 01:04:34;;;;;;;;;;;24.50;65.90;;;;;;5074107;28;19917;-69
2022/12/07 01:07:00;;;;;;;;;;;24.30;67.20;;;;;;5066141;28;20399;-69
2022/12/07 01:09:30;;;;;;;;;;;24.30;66.50;;;;;;5069783;28;19918;-72
2022/12/07 01:11:57;;;;;;;;;;;24.20;67.20;;;;;;5073980;28;19923;-71
2022/12/07 01:14:23;;;;;;;;;;;24.10;68.00;;;;;;5070489;28;19913;-71
2022/12/07 01:16:50;;;;;;;;;;;24.10;67.70;;;;;;5062036;28;19923;-71
2022/12/07 01:19:16;;;;;;;;;;;24.00;68.20;;;;;;5072242;28;19912;-71
2022/12/07 01:21:43;;;;;;;;;;;24.00;68.40;;;;;;5070965;28;19980;-72
2022/12/07 01:24:10;;;;;;;;;;;24.00;69.00;;;;;;5071991;28;20306;-72
2022/12/07 01:26:37;;;;;;;;;;;23.90;68.70;;;;;;5071860;28;20432;-72
2022/12/07 01:29:03;;;;;;;;;;;23.90;68.80;;;;;;5071073;28;20007;-69
2022/12/07 01:31:30;;;;;;;;;;;23.80;68.70;;;;;;5073832;28;19924;-71
2022/12/07 01:33:57;;;;;;;;;;;23.80;68.30;;;;;;5072878;28;19915;-72
2022/12/07 01:36:25;;;;;;;;;;;23.80;68.30;;;;;;5070983;28;19920;-70
2022/12/07 01:38:52;;;;;;;;;;;23.70;68.00;;;;;;5073221;28;19913;-70
2022/12/07 01:41:19;;;;;;;;;;;23.70;68.00;;;;;;5073693;28;20337;-70
2022/12/07 01:44:04;;;;;;;;;;;23.70;68.80;;;;;;5073065;28;20359;-69
2022/12/07 01:46:30;;;;;;;;;;;23.70;69.30;;;;;;5070595;28;19920;-70
2022/12/07 03:16:41;;;;;;;;;;;23.70;69.90;;;;;;5079530;28;19927;-72
2022/12/07 03:19:09;;;;;;;;;;;23.70;70.10;;;;;;5071923;28;20317;-72
2022/12/07 03:21:40;;;;;;;;;;;23.70;70.40;;;;;;5089864;28;20427;-72
2022/12/07 03:24:15;;;;;;;;;;;23.70;70.60;;;;;;5064778;28;20287;-72
2022/12/07 03:26:42;;;;;;;;;;;23.70;70.50;;;;;;5074625;28;19915;-72
2022/12/07 03:29:11;;;;;;;;;;;23.70;70.80;;;;;;5092179;28;19915;-71
2022/12/07 03:31:42;;;;;;;;;;;23.60;70.50;;;;;;5074132;28;19948;-72
2022/12/07 03:34:14;;;;;;;;;;;23.70;70.50;;;;;;5074556;28;20001;-72
2022/12/07 03:36:43;;;;;;;;;;;23.70;70.70;;;;;;5089655;28;19916;-72
2022/12/07 03:39:22;;;;;;;;;;;23.60;71.10;;;;;;5091177;28;19919;-72
2022/12/07 03:41:48;;;;;;;;;;;23.60;70.90;;;;;;5091755;28;19919;-71
2022/12/07 03:44:15;;;;;;;;;;;23.70;71.10;;;;;;5100506;28;19908;-72
2022/12/07 03:47:00;;;;;;;;;;;23.60;71.00;;;;;;5106000;28;20277;-73
2022/12/07 03:49:45;;;;;;;;;;;23.60;70.70;;;;;;5087706;28;19931;-72
2022/12/07 03:52:20;;;;;;;;;;;23.70;70.40;;;;;;5086291;28;21490;-72
2022/12/07 03:54:56;;;;;;;;;;;23.70;70.50;;;;;;5067094;28;19912;-72
2022/12/07 03:57:23;;;;;;;;;;;23.70;70.50;;;;;;5070384;28;20289;-72
2022/12/07 03:59:50;;;;;;;;;;;23.70;70.40;;;;;;5072514;28;19912;-72
2022/12/07 04:02:16;;;;;;;;;;;23.70;70.00;;;;;;5069628;28;19920;-72
2022/12/07 04:04:43;;;;;;;;;;;23.80;69.70;;;;;;5065353;28;19920;-72
2022/12/07 04:07:10;;;;;;;;;;;23.80;69.60;;;;;;5089615;28;19961;-72
2022/12/07 04:09:37;;;;;;;;;;;23.80;69.40;;;;;;5081693;28;20322;-72
2022/12/07 04:12:03;;;;;;;;;;;23.80;69.00;;;;;;5089637;28;20363;-72
2022/12/07 04:14:30;;;;;;;;;;;23.80;69.70;;;;;;5075149;28;19916;-71
2022/12/07 04:16:57;;;;;;;;;;;23.80;69.00;;;;;;5100328;28;19973;-72
2022/12/07 04:19:25;;;;;;;;;;;23.80;68.30;;;;;;5070055;28;19912;-72
2022/12/07 04:21:52;;;;;;;;;;;23.70;68.20;;;;;;5073128;28;20006;-72
2022/12/07 04:24:18;;;;;;;;;;;23.70;60.90;;;;;;5073773;28;19918;-72
2022/12/07 04:26:45;;;;;;;;;;;23.70;60.60;;;;;;5095931;28;20003;-72
2022/12/07 04:29:11;;;;;;;;;;;23.70;59.20;;;;;;5083353;28;19913;-72
2022/12/07 04:31:38;;;;;;;;;;;23.70;54.40;;;;;;5095058;28;19927;-72
2022/12/07 04:34:04;;;;;;;;;;;23.70;50.20;;;;;;5093914;28;19987;-71
2022/12/07 04:36:31;;;;;;;;;;;23.70;47.80;;;;;;5095557;28;19916;-72
2022/12/07 04:38:58;;;;;;;;;;;23.80;48.10;;;;;;5072681;28;19912;-73
2022/12/07 04:41:27;;;;;;;;;;;23.80;46.30;;;;;;5092724;28;19920;-74
2022/12/07 04:43:55;;;;;;;;;;;23.90;43.20;;;;;;5091469;28;19924;-73
2022/12/07 05:33:40;;;;;;;;;;;24.20;35.00;;;;;;5081482;28;19954;-76
2022/12/07 05:36:07;;;;;;;;;;;24.10;34.00;;;;;;5085528;28;19920;-76
2022/12/07 05:38:34;;;;;;;;;;;24.10;33.40;;;;;;5089582;28;20354;-76
2022/12/07 05:41:01;;;;;;;;;;;24.10;33.60;;;;;;5091854;28;19961;-76
2022/12/07 05:43:28;;;;;;;;;;;24.10;33.00;;;;;;5087040;28;19908;-76
2022/12/07 05:45:55;;;;;;;;;;;24.10;32.60;;;;;;5090782;28;20003;-76
2022/12/07 05:48:22;;;;;;;;;;;24.10;32.80;;;;;;5087992;28;20378;-76
2022/12/07 05:50:49;;;;;;;;;;;24.10;33.40;;;;;;5086211;28;19951;-76
2022/12/07 05:53:15;;;;;;;;;;;24.10;33.70;;;;;;5079744;28;19982;-76
2022/12/07 05:55:42;;;;;;;;;;;24.00;34.00;;;;;;5084696;28;20341;-75
2022/12/07 06:00:54;;;;;;;;;;;24.00;34.10;;;;;;5091026;28;20401;-75
2022/12/07 06:03:21;;;;;;;;;;;24.00;34.00;;;;;;5090701;28;20334;-75
2022/12/07 06:05:48;;;;;;;;;;;24.00;33.40;;;;;;5086763;28;20263;-72
2022/12/07 06:08:15;;;;;;;;;;;24.00;33.70;;;;;;5090820;28;19934;-74
2022/12/07 06:10:41;;;;;;;;;;;24.00;34.30;;;;;;5091370;28;19912;-74
2022/12/07 06:13:08;;;;;;;;;;;24.00;34.70;;;;;;5072127;28;19920;-72
2022/12/07 06:15:38;;;;;;;;;;;23.90;35.10;;;;;;5090068;28;20288;-72
2022/12/07 06:18:04;;;;;;;;;;;24.00;35.20;;;;;;5088818;28;19923;-72
2022/12/07 06:20:31;;;;;;;;;;;23.90;35.60;;;;;;5086152;28;20317;-72
2022/12/07 06:22:58;;;;;;;;;;;23.90;36.20;;;;;;5085515;28;19962;-75
2022/12/07 06:25:24;;;;;;;;;;;23.90;36.20;;;;;;5090647;28;19912;-74
2022/12/07 06:27:51;;;;;;;;;;;23.90;35.80;;;;;;5090622;28;20010;-75
2022/12/07 06:30:17;;;;;;;;;;;23.90;36.90;;;;;;5090341;28;20346;-74
2022/12/07 06:32:44;;;;;;;;;;;23.80;37.80;;;;;;5090005;28;19931;-75
2022/12/07 06:35:10;;;;;;;;;;;23.80;38.50;;;;;;5089938;28;19912;-75
2022/12/07 06:37:37;;;;;;;;;;;23.80;38.40;;;;;;5088067;28;19915;-72
2022/12/07 06:40:04;;;;;;;;;;;23.80;39.20;;;;;;5090280;28;19918;-72
2022/12/07 06:42:31;;;;;;;;;;;23.80;39.90;;;;;;5089933;28;19952;-70
2022/12/07 06:44:57;;;;;;;;;;;23.80;40.80;;;;;;5090134;28;19912;-70
2022/12/07 06:47:24;;;;;;;;;;;23.80;41.90;;;;;;5089471;28;19912;-72
2022/12/07 06:49:51;;;;;;;;;;;23.80;42.40;;;;;;5089857;28;20372;-72
2022/12/07 06:52:17;;;;;;;;;;;23.80;42.90;;;;;;5082377;28;19943;-71
2022/12/07 06:54:44;;;;;;;;;;;23.80;43.30;;;;;;5088321;28;19944;-73
2022/12/07 06:57:15;;;;;;;;;;;23.70;44.10;;;;;;5088639;28;20467;-72
2022/12/07 06:59:41;;;;;;;;;;;23.70;44.50;;;;;;5089622;28;19993;-73
2022/12/07 07:02:09;;;;;;;;;;;23.70;44.20;;;;;;5089495;28;19912;-72
2022/12/07 07:04:35;;;;;;;;;;;23.70;44.60;;;;;;5086036;28;20267;-69
2022/12/07 07:07:02;;;;;;;;;;;23.60;44.20;;;;;;5079962;28;19913;-72
2022/12/07 07:09:29;;;;;;;;;;;23.60;44.00;;;;;;5086585;28;19938;-71
2022/12/07 07:11:55;;;;;;;;;;;23.60;44.40;;;;;;5086685;28;20019;-70
2022/12/07 07:14:22;;;;;;;;;;;23.60;44.20;;;;;;5087578;28;19926;-71
2022/12/07 07:16:48;;;;;;;;;;;23.60;44.50;;;;;;5082517;28;19920;-70
2022/12/07 07:19:15;;;;;;;;;;;23.60;44.90;;;;;;5089047;28;19919;-71
2022/12/07 07:21:42;;;;;;;;;;;23.50;44.80;;;;;;5088530;28;19919;-69
2022/12/07 07:24:08;;;;;;;;;;;23.50;45.80;;;;;;5061409;28;19923;-69
2022/12/07 07:26:35;;;;;;;;;;;23.50;45.80;;;;;;5085094;28;19922;-68
2022/12/07 07:29:01;;;;;;;;;;;23.50;45.70;;;;;;5089318;28;19916;-69
2022/12/07 07:31:28;;;;;;;;;;;23.40;45.50;;;;;;5088041;28;19924;-70
2022/12/07 07:33:55;;;;;;;;;;;23.40;46.10;;;;;;5084799;28;20370;-71
2022/12/07 07:36:21;;;;;;;;;;;23.50;46.60;;;;;;5083376;28;19943;-71
2022/12/07 07:38:48;;;;;;;;;;;23.40;46.60;;;;;;5082381;28;19916;-70
2022/12/07 07:41:14;;;;;;;;;;;23.40;46.90;;;;;;5087772;28;20007;-70
2022/12/07 07:43:41;;;;;;;;;;;23.40;47.30;;;;;;5084981;28;19908;-72
2022/12/07 07:46:07;;;;;;;;;;;23.40;47.60;;;;;;5086768;28;19916;-72
2022/12/07 07:48:34;;;;;;;;;;;23.30;47.70;;;;;;5087880;28;19973;-68
2022/12/07 07:51:01;;;;;;;;;;;23.40;47.70;;;;;;5084652;28;20320;-67
2022/12/07 07:53:27;;;;;;;;;;;23.30;48.30;;;;;;5081273;28;19922;-72
2022/12/07 07:55:54;;;;;;;;;;;23.30;48.40;;;;;;5085318;28;20459;-70
2022/12/07 07:58:21;;;;;;;;;;;23.30;48.80;;;;;;5084719;28;20366;-71
2022/12/07 08:00:48;;;;;;;;;;;23.30;48.70;;;;;;5073721;28;20285;-70
2022/12/07 08:03:14;;;;;;;;;;;23.30;49.60;;;;;;5076895;28;20445;-69
2022/12/07 08:05:41;;;;;;;;;;;23.30;49.10;;;;;;5088005;28;19912;-69
2022/12/07 08:08:07;;;;;;;;;;;23.30;49.10;;;;;;5088648;28;19923;-70
2022/12/07 08:10:35;;;;;;;;;;;23.30;49.00;;;;;;5087977;28;19912;-71
2022/12/07 08:13:13;;;;;;;;;;;23.30;48.80;;;;;;5088015;28;19950;-71
2022/12/07 08:15:41;;;;;;;;;;;23.30;49.00;;;;;;5068292;28;19912;-71
2022/12/07 08:18:07;;;;;;;;;;;23.30;48.80;;;;;;5080788;28;19916;-71
2022/12/07 08:20:34;;;;;;;;;;;23.30;49.50;;;;;;5084225;28;19912;-71
2022/12/07 08:23:02;;;;;;;;;;;23.30;48.90;;;;;;5064780;28;20271;-71
2022/12/07 08:25:29;;;;;;;;;;;23.20;49.20;;;;;;5086811;28;19997;-71
2022/12/07 08:27:55;;;;;;;;;;;23.20;49.80;;;;;;5087137;28;19912;-71
2022/12/07 08:30:22;;;;;;;;;;;23.20;49.80;;;;;;5081511;28;19921;-71
2022/12/07 08:32:48;;;;;;;;;;;23.20;49.70;;;;;;5079161;28;19920;-72
2022/12/07 08:35:15;;;;;;;;;;;23.20;50.20;;;;;;5087153;28;20033;-71
2022/12/07 08:37:42;;;;;;;;;;;23.10;50.00;;;;;;5084430;28;20566;-71
2022/12/07 08:40:09;;;;;;;;;;;23.20;50.30;;;;;;5083826;28;19923;-72
2022/12/07 08:42:39;;;;;;;;;;;23.10;50.10;;;;;;5088618;28;19939;-72
2022/12/07 08:45:10;;;;;;;;;;;23.10;50.10;;;;;;5085182;28;19916;-72
2022/12/07 08:47:37;;;;;;;;;;;23.10;50.30;;;;;;5088627;28;20310;-72
2022/12/07 08:50:04;;;;;;;;;;;23.10;50.50;;;;;;5088684;28;20362;-72
2022/12/07 08:54:56;;;;;;;;;;;23.10;50.70;;;;;;5081554;28;19927;-71
2022/12/07 08:57:22;;;;;;;;;;;23.10;50.50;;;;;;5088923;28;20362;-69
2022/12/07 08:59:49;;;;;;;;;;;23.00;50.30;;;;;;5085877;28;20311;-70
2022/12/07 09:02:16;;;;;;;;;;;23.00;50.50;;;;;;5088160;28;19967;-69
2022/12/07 09:04:42;;;;;;;;;;;23.00;50.70;;;;;;5082320;28;20014;-67
2022/12/07 09:07:09;;;;;;;;;;;23.00;51.00;;;;;;5088749;28;19965;-68
2022/12/07 09:09:35;;;;;;;;;;;23.00;50.80;;;;;;5089006;28;19915;-67
2022/12/07 09:12:02;;;;;;;;;;;23.00;50.50;;;;;;5091893;28;19920;-71
2022/12/07 09:14:29;;;;;;;;;;;23.00;49.90;;;;;;5083824;28;19916;-71
2022/12/07 09:16:55;;;;;;;;;;;22.90;50.40;;;;;;5092446;28;20366;-72
2022/12/07 09:19:22;;;;;;;;;;;22.90;50.40;;;;;;5092437;28;19912;-71
2022/12/07 09:21:48;;;;;;;;;;;22.90;50.20;;;;;;5092237;28;19927;-70
2022/12/07 09:24:15;;;;;;;;;;;22.90;50.20;;;;;;5084847;28;20006;-68
2022/12/07 09:26:41;;;;;;;;;;;22.90;50.30;;;;;;5091842;28;19919;-69
2022/12/07 09:29:08;;;;;;;;;;;22.90;50.30;;;;;;5092321;28;20405;-71
2022/12/07 09:31:36;;;;;;;;;;;22.80;50.60;;;;;;5091924;28;20358;-71
2022/12/07 09:34:04;;;;;;;;;;;22.90;51.00;;;;;;5090322;28;19965;-69
2022/12/07 09:36:31;;;;;;;;;;;22.80;51.00;;;;;;5090045;28;19908;-72
2022/12/07 09:38:58;;;;;;;;;;;22.80;51.00;;;;;;5088772;28;19988;-70
2022/12/07 09:41:25;;;;;;;;;;;22.80;51.30;;;;;;5083269;28;19978;-70
2022/12/07 09:43:51;;;;;;;;;;;22.80;51.80;;;;;;5072667;28;19927;-69
2022/12/07 09:46:18;;;;;;;;;;;22.80;51.70;;;;;;5073238;28;19916;-70
2022/12/07 09:48:45;;;;;;;;;;;22.80;51.50;;;;;;5072477;28;19957;-70
2022/12/07 09:51:16;;;;;;;;;;;22.80;51.40;;;;;;5073051;28;19912;-71
2022/12/07 10:42:10;;;;;;;;;;;22.60;52.60;;;;;;5081693;28;20502;-74
2022/12/07 10:44:36;;;;;;;;;;;22.50;53.50;;;;;;5079493;28;19967;-74
2022/12/07 10:47:06;;;;;;;;;;;22.50;53.90;;;;;;5093766;28;20378;-74
2022/12/07 10:49:50;;;;;;;;;;;22.50;54.30;;;;;;5090949;28;19953;-74
2022/12/07 10:52:20;;;;;;;;;;;22.50;54.20;;;;;;5085712;28;20437;-74
2022/12/07 10:54:49;;;;;;;;;;;22.50;53.90;;;;;;5074121;28;20402;-72
2022/12/07 10:57:20;;;;;;;;;;;22.50;53.60;;;;;;5069896;28;20374;-73
2022/12/07 10:59:52;;;;;;;;;;;22.50;54.30;;;;;;5068332;28;21805;-73
2022/12/07 11:02:19;;;;;;;;;;;22.40;53.90;;;;;;5087517;28;19908;-72
2022/12/07 11:04:49;;;;;;;;;;;22.40;54.20;;;;;;5089843;28;19939;-73
2022/12/07 11:07:23;;;;;;;;;;;22.40;54.00;;;;;;5086356;28;20350;-73
2022/12/07 11:09:56;;;;;;;;;;;22.40;54.30;;;;;;5068892;28;19908;-73
2022/12/07 11:12:32;;;;;;;;;;;22.40;53.90;;;;;;5068297;28;19924;-73
2022/12/07 11:15:11;;;;;;;;;;;22.40;53.50;;;;;;5089930;28;19941;-73
2022/12/07 11:17:44;;;;;;;;;;;22.40;53.80;;;;;;5066593;28;19962;-74
2022/12/07 11:20:25;;;;;;;;;;;22.40;54.10;;;;;;5089616;28;19920;-74
2022/12/07 11:22:58;;;;;;;;;;;22.40;54.40;;;;;;5072119;28;19950;-73
2022/12/07 11:25:54;;;;;;;;;;;22.40;54.00;;;;;;5066751;28;19913;-72
2022/12/07 11:28:24;;;;;;;;;;;22.40;53.90;;;;;;5072326;28;19923;-73
2022/12/07 11:31:14;;;;;;;;;;;22.30;54.00;;;;;;5070010;28;19994;-73
2022/12/07 11:34:07;;;;;;;;;;;22.30;54.20;;;;;;5081020;28;20336;-73
2022/12/07 11:36:46;;;;;;;;;;;22.30;54.30;;;;;;5048935;28;20038;-73
2022/12/07 11:39:20;;;;;;;;;;;22.30;54.20;;;;;;5078841;28;19927;-73
2022/12/07 11:50:59;;;;;;;;;;;22.30;54.00;;;;;;5077249;28;19927;-73
2022/12/07 11:53:27;;;;;;;;;;;22.30;53.40;;;;;;5062662;28;19924;-73
2022/12/07 11:56:12;;;;;;;;;;;22.30;53.80;;;;;;5066874;28;19917;-72
2022/12/07 11:58:38;;;;;;;;;;;22.30;54.10;;;;;;5088752;28;19912;-73
2022/12/07 12:01:16;;;;;;;;;;;22.30;54.70;;;;;;5084582;28;19919;-74
2022/12/07 12:04:12;;;;;;;;;;;22.30;54.70;;;;;;5083571;28;20512;-74
2022/12/07 12:06:40;;;;;;;;;;;22.20;54.70;;;;;;5077338;28;19912;-75
2022/12/07 12:09:11;;;;;;;;;;;22.20;55.00;;;;;;5095425;28;19950;-75
2022/12/07 12:11:41;;;;;;;;;;;22.30;55.00;;;;;;5096142;28;19916;-75
2022/12/07 12:14:25;;;;;;;;;;;22.20;55.10;;;;;;5104138;28;19908;-75
2022/12/07 12:17:10;;;;;;;;;;;22.20;56.00;;;;;;5093505;28;19912;-75
2022/12/07 12:19:46;;;;;;;;;;;22.20;55.60;;;;;;5091080;28;20290;-74
2022/12/07 12:22:21;;;;;;;;;;;22.20;56.40;;;;;;5077754;28;19919;-75
2022/12/07 12:24:50;;;;;;;;;;;22.20;56.10;;;;;;5075602;28;19970;-75
2022/12/07 12:27:31;;;;;;;;;;;22.10;56.50;;;;;;5112232;28;20048;-75
2022/12/07 12:29:58;;;;;;;;;;;22.10;56.20;;;;;;5088473;28;19934;-75
2022/12/07 12:32:45;;;;;;;;;;;22.10;57.70;;;;;;5091981;28;19981;-75
2022/12/07 12:35:23;;;;;;;;;;;22.00;57.40;;;;;;5088317;28;19908;-75
2022/12/07 12:37:50;;;;;;;;;;;22.00;57.50;;;;;;5073952;28;19952;-75
2022/12/07 12:40:16;;;;;;;;;;;22.00;58.20;;;;;;5072877;28;19954;-75
2022/12/07 12:42:50;;;;;;;;;;;21.90;57.60;;;;;;5090826;28;19912;-75
2022/12/07 12:45:24;;;;;;;;;;;21.90;57.90;;;;;;5072989;28;19912;-75
2022/12/07 12:47:53;;;;;;;;;;;21.90;58.70;;;;;;5083771;28;19916;-75
2022/12/07 12:50:21;;;;;;;;;;;21.80;58.10;;;;;;5089828;28;19921;-75
2022/12/07 12:53:07;;;;;;;;;;;21.80;58.20;;;;;;5095406;28;20332;-75
2022/12/07 12:55:43;;;;;;;;;;;21.80;58.80;;;;;;5077280;28;19919;-75
2022/12/07 12:58:36;;;;;;;;;;;21.80;58.20;;;;;;5095095;28;19923;-75
2022/12/07 13:01:21;;;;;;;;;;;21.70;58.20;;;;;;5083834;28;19967;-75
2022/12/07 13:03:54;;;;;;;;;;;21.70;57.90;;;;;;5095757;28;19915;-75
2022/12/07 13:06:33;;;;;;;;;;;21.70;58.30;;;;;;5077620;28;19958;-75
2022/12/07 13:09:00;;;;;;;;;;;21.70;57.70;;;;;;5077427;28;19908;-75
2022/12/07 13:11:30;;;;;;;;;;;21.70;57.90;;;;;;5086462;28;19916;-75
2022/12/07 13:14:15;;;;;;;;;;;21.70;58.70;;;;;;5095591;28;19959;-75
2022/12/07 13:16:41;;;;;;;;;;;21.70;57.60;;;;;;5091645;28;19920;-75
2022/12/07 13:19:37;;;;;;;;;;;21.70;57.60;;;;;;5076672;28;19923;-75
2022/12/07 13:22:04;;;;;;;;;;;21.70;57.50;;;;;;5075353;28;19918;-75
2022/12/07 13:24:30;;;;;;;;;;;21.70;58.40;;;;;;5094206;28;19912;-75
2022/12/07 13:26:57;;;;;;;;;;;21.60;57.40;;;;;;5076989;28;19969;-75
2022/12/07 13:29:24;;;;;;;;;;;21.60;57.50;;;;;;5093859;28;19934;-75
2022/12/07 13:31:51;;;;;;;;;;;21.60;57.70;;;;;;5085264;28;19920;-75
2022/12/07 13:34:28;;;;;;;;;;;21.60;57.60;;;;;;5094304;28;19916;-75
2022/12/07 13:36:55;;;;;;;;;;;21.60;57.20;;;;;;5092860;28;19912;-75
2022/12/07 13:39:23;;;;;;;;;;;21.60;57.70;;;;;;5088155;28;19961;-75
2022/12/07 13:41:51;;;;;;;;;;;21.50;57.20;;;;;;5075044;28;19912;-75
2022/12/07 13:44:18;;;;;;;;;;;21.50;58.30;;;;;;5092250;28;19912;-75
2022/12/07 13:46:47;;;;;;;;;;;21.50;57.80;;;;;;5092095;28;20286;-75
2022/12/07 13:49:18;;;;;;;;;;;21.50;57.70;;;;;;5082623;28;19912;-75
2022/12/07 13:51:44;;;;;;;;;;;21.40;58.00;;;;;;5073564;28;19955;-75
2022/12/07 13:54:12;;;;;;;;;;;21.40;57.80;;;;;;5092942;28;19957;-75
2022/12/07 13:56:41;;;;;;;;;;;21.40;57.80;;;;;;5074450;28;19917;-75
2022/12/07 13:59:13;;;;;;;;;;;21.40;58.50;;;;;;5061486;28;19920;-75
2022/12/07 14:01:40;;;;;;;;;;;21.40;58.30;;;;;;5076053;28;19923;-75
2022/12/07 14:04:19;;;;;;;;;;;21.30;58.00;;;;;;5074731;28;19912;-75
2022/12/07 14:06:50;;;;;;;;;;;21.30;58.50;;;;;;5092802;28;19920;-75
2022/12/07 14:09:21;;;;;;;;;;;21.30;58.80;;;;;;5089281;28;20320;-75
2022/12/07 14:11:48;;;;;;;;;;;21.30;58.70;;;;;;5075359;28;19926;-75
2022/12/07 14:14:16;;;;;;;;;;;21.20;58.30;;;;;;5075129;28;20392;-75
2022/12/07 14:16:43;;;;;;;;;;;21.30;58.80;;;;;;5089890;28;19935;-76
2022/12/07 14:19:27;;;;;;;;;;;21.30;58.70;;;;;;5087856;28;20006;-74
2022/12/07 14:22:06;;;;;;;;;;;21.30;58.70;;;;;;5085634;28;19960;-75
2022/12/07 14:24:40;;;;;;;;;;;21.20;58.30;;;;;;5092850;28;19923;-75
2022/12/07 14:27:15;;;;;;;;;;;21.20;58.50;;;;;;5072350;28;19931;-75
2022/12/07 14:29:42;;;;;;;;;;;21.20;58.40;;;;;;5064581;28;20290;-75
2022/12/07 14:32:14;;;;;;;;;;;21.30;58.70;;;;;;5092742;28;20062;-75
2022/12/07 14:34:41;;;;;;;;;;;21.20;59.40;;;;;;5093618;28;19935;-75
2022/12/07 14:37:09;;;;;;;;;;;21.30;59.10;;;;;;5086494;28;19916;-75
2022/12/07 14:39:35;;;;;;;;;;;21.20;58.90;;;;;;5074148;28;19999;-75
2022/12/07 14:42:02;;;;;;;;;;;21.20;59.10;;;;;;5090009;28;19912;-75
2022/12/07 14:44:28;;;;;;;;;;;21.20;58.90;;;;;;5093050;28;19904;-75
2022/12/07 14:46:55;;;;;;;;;;;21.20;59.70;;;;;;5086690;28;19912;-75
2022/12/07 14:49:22;;;;;;;;;;;21.20;59.40;;;;;;5092165;28;19916;-74
2022/12/07 14:51:48;;;;;;;;;;;21.10;59.20;;;;;;5072087;28;19931;-75
2022/12/07 14:54:18;;;;;;;;;;;21.20;59.70;;;;;;5092137;28;19919;-75
2022/12/07 14:56:48;;;;;;;;;;;21.10;59.30;;;;;;5074542;28;19965;-75
2022/12/07 14:59:16;;;;;;;;;;;21.10;59.30;;;;;;5090195;28;20019;-75
2022/12/07 15:01:42;;;;;;;;;;;21.10;59.60;;;;;;5092263;28;19935;-75
2022/12/07 15:04:09;;;;;;;;;;;21.10;59.60;;;;;;5092510;28;20285;-75
2022/12/07 15:06:36;;;;;;;;;;;21.00;60.00;;;;;;5092120;28;19986;-75
2022/12/07 15:09:02;;;;;;;;;;;21.00;59.80;;;;;;5089263;28;19965;-75
2022/12/07 15:11:29;;;;;;;;;;;21.10;60.30;;;;;;5090873;28;19973;-75
2022/12/07 15:14:07;;;;;;;;;;;21.00;60.70;;;;;;5087753;28;20389;-75
2022/12/07 15:16:34;;;;;;;;;;;21.00;60.30;;;;;;5084922;28;19916;-75
2022/12/07 15:19:01;;;;;;;;;;;21.00;61.00;;;;;;5091233;28;20412;-75
2022/12/07 15:21:27;;;;;;;;;;;21.00;60.80;;;;;;5074687;28;19947;-75
2022/12/07 15:23:54;;;;;;;;;;;21.00;60.90;;;;;;5093056;28;19914;-75
2022/12/07 15:26:21;;;;;;;;;;;20.90;61.00;;;;;;5092648;28;20254;-75
2022/12/07 15:28:47;;;;;;;;;;;20.90;60.80;;;;;;5086945;28;19916;-75
2022/12/07 15:31:14;;;;;;;;;;;20.90;61.10;;;;;;5091455;28;20319;-75
2022/12/07 15:33:41;;;;;;;;;;;20.90;61.00;;;;;;5088628;28;19916;-75
2022/12/07 15:36:07;;;;;;;;;;;20.90;61.20;;;;;;5092268;28;19908;-75
2022/12/07 15:38:35;;;;;;;;;;;20.80;61.90;;;;;;5092536;28;19908;-75
2022/12/07 15:41:01;;;;;;;;;;;20.80;61.20;;;;;;5091251;28;19912;-75
2022/12/07 15:46:14;;;;;;;;;;;20.80;61.40;;;;;;5087637;28;19919;-75
2022/12/07 15:48:40;;;;;;;;;;;20.80;61.30;;;;;;5091436;28;19945;-75
2022/12/07 15:51:07;;;;;;;;;;;20.80;61.40;;;;;;5092126;28;20267;-75
2022/12/07 15:53:34;;;;;;;;;;;20.80;61.30;;;;;;5081519;28;19920;-75
2022/12/07 15:56:01;;;;;;;;;;;20.80;62.30;;;;;;5090096;28;19911;-75
2022/12/07 15:58:27;;;;;;;;;;;20.80;61.70;;;;;;5091665;28;19916;-75
2022/12/07 16:00:54;;;;;;;;;;;20.80;62.20;;;;;;5090222;28;19919;-75
2022/12/07 16:03:20;;;;;;;;;;;20.80;61.90;;;;;;5084890;28;19919;-75
2022/12/07 16:05:50;;;;;;;;;;;20.80;61.50;;;;;;5085928;28;19912;-75
2022/12/07 16:08:17;;;;;;;;;;;20.80;61.60;;;;;;5074574;28;19916;-75
2022/12/07 16:10:44;;;;;;;;;;;20.80;61.90;;;;;;5091096;28;19964;-75
2022/12/07 16:13:11;;;;;;;;;;;20.80;61.90;;;;;;5081412;28;19924;-75
2022/12/07 16:15:40;;;;;;;;;;;20.70;62.20;;;;;;5067420;28;19912;-75
2022/12/07 16:18:07;;;;;;;;;;;20.70;62.40;;;;;;5090912;28;19912;-75
2022/12/07 16:20:34;;;;;;;;;;;20.70;62.70;;;;;;5093393;28;19919;-75
2022/12/07 16:23:00;;;;;;;;;;;20.60;62.60;;;;;;5085336;28;20267;-75
2022/12/07 16:25:27;;;;;;;;;;;20.60;62.80;;;;;;5096378;28;19915;-75
2022/12/07 16:27:53;;;;;;;;;;;20.60;62.90;;;;;;5096208;28;19931;-75
2022/12/07 16:30:20;;;;;;;;;;;20.60;62.90;;;;;;5093845;28;19916;-75
2022/12/07 16:32:47;;;;;;;;;;;20.50;62.90;;;;;;5090560;28;19920;-75
2022/12/07 16:35:13;;;;;;;;;;;20.60;62.90;;;;;;5085949;28;19943;-75
2022/12/07 16:37:41;;;;;;;;;;;20.50;62.90;;;;;;5116408;28;19984;-75
2022/12/07 16:40:08;;;;;;;;;;;20.50;62.80;;;;;;5096024;28;19912;-75
2022/12/07 16:42:35;;;;;;;;;;;20.50;63.10;;;;;;5112858;28;19912;-75
2022/12/07 16:45:02;;;;;;;;;;;20.50;62.80;;;;;;5098059;28;19912;-75
2022/12/07 16:47:28;;;;;;;;;;;20.50;62.90;;;;;;5089324;28;19916;-75
2022/12/07 16:49:55;;;;;;;;;;;20.40;62.90;;;;;;5108551;28;19920;-75
2022/12/07 16:52:22;;;;;;;;;;;20.40;63.00;;;;;;5113012;28;20385;-74
2022/12/07 16:54:48;;;;;;;;;;;20.40;62.90;;;;;;5106612;28;19908;-75
2022/12/07 16:57:15;;;;;;;;;;;20.50;62.80;;;;;;5115894;28;19915;-75
2022/12/07 16:59:42;;;;;;;;;;;20.50;62.70;;;;;;5101587;28;19961;-75
2022/12/07 17:02:10;;;;;;;;;;;20.50;62.50;;;;;;5107263;28;19920;-75
2022/12/07 17:04:39;;;;;;;;;;;20.50;62.50;;;;;;5077056;28;19908;-75
2022/12/07 17:07:06;;;;;;;;;;;20.50;62.50;;;;;;5107349;28;19912;-75
2022/12/07 17:09:32;;;;;;;;;;;20.40;62.40;;;;;;5087361;28;19908;-75
2022/12/07 17:11:59;;;;;;;;;;;20.40;62.70;;;;;;5116381;28;19923;-75
2022/12/07 17:17:10;;;;;;;;;;;20.30;62.90;;;;;;5096190;28;20309;-75
2022/12/07 17:19:37;;;;;;;;;;;20.30;62.70;;;;;;5108533;28;19912;-75
2022/12/07 17:22:04;;;;;;;;;;;20.30;62.80;;;;;;5112135;28;19912;-75
2022/12/07 17:24:30;;;;;;;;;;;20.30;63.00;;;;;;5061233;28;20680;-75
2022/12/07 17:26:57;;;;;;;;;;;20.30;62.80;;;;;;5092674;28;19963;-75
2022/12/07 17:29:23;;;;;;;;;;;20.40;63.10;;;;;;5103223;28;19919;-75
2022/12/07 17:31:50;;;;;;;;;;;20.30;62.80;;;;;;5089866;28;20332;-75
2022/12/07 17:34:16;;;;;;;;;;;20.40;62.80;;;;;;5093557;28;19919;-75
2022/12/07 17:36:44;;;;;;;;;;;20.30;63.00;;;;;;5093771;28;19995;-75
2022/12/07 17:39:13;;;;;;;;;;;20.30;62.90;;;;;;5094615;28;19912;-75
2022/12/07 17:44:24;;;;;;;;;;;20.30;62.90;;;;;;5103249;28;19918;-75
2022/12/07 17:46:56;;;;;;;;;;;20.30;62.90;;;;;;5094891;28;19943;-74
2022/12/07 17:49:23;;;;;;;;;;;20.30;63.40;;;;;;5086314;28;20003;-74
2022/12/07 17:54:34;;;;;;;;;;;20.20;63.70;;;;;;5094766;28;19915;-75
2022/12/07 17:57:01;;;;;;;;;;;20.20;63.60;;;;;;5093868;28;19918;-75
2022/12/07 17:59:27;;;;;;;;;;;20.20;63.50;;;;;;5092937;28;19908;-74
2022/12/07 18:01:54;;;;;;;;;;;20.20;63.70;;;;;;5095735;28;19946;-75
2022/12/07 18:04:20;;;;;;;;;;;20.20;63.30;;;;;;5092892;28;19939;-75
2022/12/07 18:06:47;;;;;;;;;;;20.20;63.20;;;;;;5093725;28;20366;-75
2022/12/07 18:09:14;;;;;;;;;;;20.20;63.30;;;;;;5081101;28;19920;-75
2022/12/07 18:11:40;;;;;;;;;;;20.20;63.50;;;;;;5093767;28;19927;-68
2022/12/07 18:14:07;;;;;;;;;;;20.20;63.50;;;;;;5094333;28;19991;-72
2022/12/07 18:16:34;;;;;;;;;;;20.20;63.20;;;;;;5092949;28;19920;-74
2022/12/07 18:19:01;;;;;;;;;;;20.20;63.50;;;;;;5092278;28;20002;-72
2022/12/07 18:21:29;;;;;;;;;;;20.20;63.30;;;;;;5094028;28;19912;-71
2022/12/07 18:23:57;;;;;;;;;;;20.20;63.60;;;;;;5091900;28;20269;-71
2022/12/07 18:26:24;;;;;;;;;;;20.20;63.50;;;;;;5094060;28;19908;-72
2022/12/07 18:28:51;;;;;;;;;;;20.20;63.40;;;;;;5068098;28;19916;-72
2022/12/07 18:31:19;;;;;;;;;;;20.20;64.00;;;;;;5092344;28;19942;-71
2022/12/07 18:33:45;;;;;;;;;;;20.20;64.20;;;;;;5092811;28;19916;-72
2022/12/07 18:36:12;;;;;;;;;;;20.10;63.90;;;;;;5092945;28;19955;-71
2022/12/07 18:38:38;;;;;;;;;;;20.10;64.10;;;;;;5088315;28;20003;-72
2022/12/07 18:41:09;;;;;;;;;;;20.10;64.50;;;;;;5093522;28;19914;-72